createdAt,value
2018-06-27T00:00:46.554Z,7.42
2018-06-27T00:06:16.466Z,7.10
2018-06-27T00:11:46.405Z,6.95
2018-06-27T00:17:16.037Z,7.62
2018-06-27T00:22:46.481Z,7.65
2018-06-27T00:28:16.473Z,7.87
2018-06-27T00:33:46.187Z,7.28
2018-06-27T00:39:15.916Z,7.78
2018-06-27T00:44:45.915Z,8.63
2018-06-27T00:50:15.923Z,8.65
2018-06-27T00:55:45.719Z,8.68
2018-06-27T01:01:15.752Z,8.05
2018-06-27T01:06:46.202Z,8.73
2018-06-27T01:12:16.707Z,9.05
2018-06-27T01:17:54.807Z,8.18
2018-06-27T01:23:24.010Z,8.73
2018-06-27T01:28:53.439Z,8.20
2018-06-27T01:34:22.862Z,8.25
2018-06-27T01:39:52.113Z,8.18
2018-06-27T01:45:21.709Z,8.10
2018-06-27T01:50:51.110Z,8.33
2018-06-27T01:56:20.595Z,8.58
2018-06-27T02:01:50.019Z,9.87
2018-06-27T02:07:19.461Z,10.13
2018-06-27T02:12:49.640Z,8.33
2018-06-27T02:18:19.227Z,8.50
2018-06-27T02:23:48.535Z,8.60
2018-06-27T02:29:18.372Z,9.35
2018-06-27T02:34:48.380Z,9.00
2018-06-27T02:40:19.399Z,8.43
2018-06-27T02:45:48.917Z,9.78
2018-06-27T02:51:18.216Z,9.20
2018-06-27T02:56:47.645Z,10.20
2018-06-27T03:02:17.465Z,9.40
2018-06-27T03:07:47.012Z,9.45
2018-06-27T03:13:16.595Z,10.35
2018-06-27T03:18:55.312Z,9.55
2018-06-27T03:24:24.534Z,9.05
2018-06-27T03:29:53.723Z,8.95
2018-06-27T03:35:22.904Z,8.93
2018-06-27T03:40:52.251Z,10.48
2018-06-27T03:46:21.547Z,9.53
2018-06-27T03:51:50.737Z,9.55
2018-06-27T03:57:23.283Z,8.98
2018-06-27T04:02:52.476Z,10.03
2018-06-27T04:08:21.695Z,8.70
2018-06-27T04:13:50.929Z,9.18
2018-06-27T04:19:19.878Z,9.45
2018-06-27T04:24:49.263Z,9.53
2018-06-27T04:30:18.614Z,9.18
2018-06-27T04:35:47.989Z,8.43
2018-06-27T04:41:17.590Z,8.40
2018-06-27T04:46:47.301Z,8.57
2018-06-27T04:52:17.341Z,7.15
2018-06-27T04:57:47.173Z,7.60
2018-06-27T05:03:17.390Z,7.30
2018-06-27T05:08:47.208Z,8.15
2018-06-27T05:14:17.165Z,6.72
2018-06-27T05:19:46.916Z,7.55
2018-06-27T05:25:16.833Z,7.80
2018-06-27T05:30:46.871Z,7.47
2018-06-27T05:36:16.754Z,6.28
2018-06-27T05:41:46.636Z,7.07
2018-06-27T05:47:17.196Z,6.80
2018-06-27T05:52:46.912Z,6.70
2018-06-27T05:58:16.983Z,5.90
2018-06-27T06:03:47.273Z,7.10
2018-06-27T06:09:17.968Z,6.00
2018-06-27T06:14:47.902Z,6.37
2018-06-27T06:20:17.644Z,5.78
2018-06-27T06:25:47.207Z,5.97
2018-06-27T06:31:17.667Z,5.95
2018-06-27T06:36:47.914Z,6.08
2018-06-27T06:42:18.161Z,6.40
2018-06-27T06:47:47.890Z,5.80
2018-06-27T06:53:18.539Z,5.87
2018-06-27T06:58:48.828Z,6.05
2018-06-27T07:04:18.633Z,5.67
2018-06-27T07:09:48.321Z,6.00
2018-06-27T07:15:18.916Z,5.25
2018-06-27T07:20:49.089Z,6.40
2018-06-27T07:26:18.842Z,5.95
2018-06-27T07:31:48.710Z,5.83
2018-06-27T07:37:18.441Z,5.78
2018-06-27T07:42:47.776Z,5.12
2018-06-27T07:48:17.775Z,6.37
2018-06-27T07:53:47.522Z,5.75
2018-06-27T07:59:17.229Z,5.40
2018-06-27T08:04:47.739Z,5.25
2018-06-27T08:10:17.716Z,5.90
2018-06-27T08:15:47.279Z,5.70
2018-06-27T08:21:16.827Z,5.03
2018-06-27T08:26:46.987Z,4.50
2018-06-27T08:32:16.553Z,5.33
2018-06-27T08:37:46.458Z,4.95
2018-06-27T08:43:17.468Z,5.45
2018-06-27T08:48:47.466Z,4.40
2018-06-27T08:54:17.641Z,4.58
2018-06-27T08:59:49.584Z,4.80
2018-06-27T09:05:19.192Z,3.83
2018-06-27T09:10:48.895Z,4.08
2018-06-27T09:16:18.456Z,3.72
2018-06-27T09:21:47.947Z,3.30
2018-06-27T09:27:17.887Z,3.98
2018-06-27T09:32:48.018Z,3.95
2018-06-27T09:38:17.525Z,3.98
2018-06-27T09:43:47.018Z,5.12
2018-06-27T09:49:16.657Z,3.02
2018-06-27T09:54:47.153Z,3.60
2018-06-27T10:00:22.432Z,3.55
2018-06-27T10:05:52.032Z,3.45
2018-06-27T10:11:21.651Z,3.45
2018-06-27T10:16:52.607Z,2.70
2018-06-27T10:22:22.275Z,2.62
2018-06-27T10:27:51.823Z,2.33
2018-06-27T10:33:21.391Z,2.45
2018-06-27T10:38:50.737Z,2.40
2018-06-27T10:44:20.073Z,3.08
2018-06-27T10:49:49.437Z,2.65
2018-06-27T10:55:19.495Z,2.72
2018-06-27T11:00:48.898Z,2.10
2018-06-27T11:06:18.675Z,1.92
2018-06-27T11:11:48.859Z,1.77
2018-06-27T11:17:18.858Z,1.85
2018-06-27T11:22:48.649Z,1.55
2018-06-27T11:28:18.162Z,1.72
2018-06-27T11:33:48.996Z,1.77
2018-06-27T11:39:18.613Z,1.90
2018-06-27T11:44:48.232Z,2.00
2018-06-27T11:50:17.731Z,1.50
2018-06-27T11:55:47.128Z,1.60
2018-06-27T12:01:16.825Z,2.30
2018-06-27T12:06:46.361Z,1.60
2018-06-27T12:12:16.323Z,1.50
2018-06-27T12:17:45.745Z,1.70
2018-06-27T12:23:15.829Z,1.72
2018-06-27T12:28:45.516Z,2.00
2018-06-27T12:34:15.190Z,2.12
2018-06-27T12:39:45.843Z,1.95
2018-06-27T12:45:16.311Z,1.75
2018-06-27T12:50:46.044Z,2.40
2018-06-27T12:56:15.569Z,2.10
2018-06-27T13:01:46.824Z,1.70
2018-06-27T13:07:16.958Z,1.55
2018-06-27T13:12:47.281Z,1.32
2018-06-27T13:18:17.703Z,1.30
2018-06-27T13:23:47.562Z,1.27
2018-06-27T13:29:17.813Z,2.30
2018-06-27T13:34:48.028Z,1.47
2018-06-27T13:40:18.375Z,1.72
2018-06-27T13:45:48.585Z,1.30
2018-06-27T13:51:18.118Z,1.85
2018-06-27T13:56:48.274Z,2.10
2018-06-27T14:02:17.728Z,1.20
2018-06-27T14:07:47.562Z,1.90
2018-06-27T14:13:17.052Z,1.70
2018-06-27T14:18:46.562Z,2.25
2018-06-27T14:24:15.963Z,2.87
2018-06-27T14:29:46.030Z,2.52
2018-06-27T14:35:15.949Z,2.00
2018-06-27T14:40:46.600Z,2.17
2018-06-27T14:46:16.977Z,1.50
2018-06-27T14:51:46.930Z,1.95
2018-06-27T14:57:16.811Z,1.87
2018-06-27T15:02:46.622Z,2.33
2018-06-27T15:08:16.841Z,1.80
2018-06-27T15:13:47.517Z,1.85
2018-06-27T15:19:17.428Z,2.27
2018-06-27T15:24:47.275Z,2.00
2018-06-27T15:30:20.899Z,1.90
2018-06-27T15:35:50.843Z,2.00
2018-06-27T15:41:20.349Z,1.82
2018-06-27T15:46:49.917Z,1.80
2018-06-27T15:52:19.905Z,2.00
2018-06-27T15:57:50.750Z,2.20
2018-06-27T16:03:20.533Z,1.60
2018-06-27T16:08:49.945Z,1.70
2018-06-27T16:14:19.619Z,1.70
2018-06-27T16:19:50.272Z,1.62
2018-06-27T16:25:21.860Z,1.80
2018-06-27T16:30:51.467Z,2.20
2018-06-27T16:36:24.257Z,1.98
2018-06-27T16:41:53.434Z,2.17
2018-06-27T16:47:23.397Z,2.15
2018-06-27T16:52:52.928Z,2.08
2018-06-27T16:58:22.664Z,1.87
2018-06-27T17:04:02.698Z,1.22
2018-06-27T17:09:31.943Z,1.15
2018-06-27T17:15:02.524Z,1.10
2018-06-27T17:20:31.856Z,1.30
2018-06-27T17:26:01.126Z,1.00
2018-06-27T17:31:30.393Z,1.30
2018-06-27T17:36:59.597Z,1.30
2018-06-27T17:42:28.809Z,1.40
2018-06-27T17:47:58.029Z,1.60
2018-06-27T17:53:27.341Z,2.02
2018-06-27T17:58:56.643Z,2.52
2018-06-27T18:04:26.027Z,2.37
2018-06-27T18:09:55.627Z,1.95
2018-06-27T18:15:25.479Z,2.75
2018-06-27T18:20:55.369Z,2.55
2018-06-27T18:26:24.917Z,2.02
2018-06-27T18:31:54.864Z,1.52
2018-06-27T18:37:24.488Z,1.75
2018-06-27T18:42:54.327Z,1.80
2018-06-27T18:48:24.216Z,1.87
2018-06-27T18:53:53.848Z,2.17
2018-06-27T18:59:25.077Z,2.45
2018-06-27T19:04:54.809Z,3.10
2018-06-27T19:10:24.586Z,2.80
2018-06-27T19:15:54.221Z,2.40
2018-06-27T19:21:23.736Z,2.42
2018-06-27T19:26:53.390Z,2.47
2018-06-27T19:32:23.799Z,1.92
2018-06-27T19:37:53.499Z,1.92
2018-06-27T19:43:23.123Z,2.00
2018-06-27T19:48:52.788Z,2.05
2018-06-27T19:54:22.219Z,2.08
2018-06-27T19:59:51.717Z,2.42
2018-06-27T20:05:21.935Z,2.42
2018-06-27T20:10:51.352Z,2.70
2018-06-27T20:16:20.773Z,4.50
2018-06-27T20:21:50.364Z,13.60
2018-06-27T20:27:21.189Z,4.30
2018-06-27T20:32:50.814Z,4.80
2018-06-27T20:38:21.273Z,9.13
2018-06-27T20:43:51.402Z,5.22
2018-06-27T20:49:20.972Z,3.60
2018-06-27T20:54:50.482Z,5.40
2018-06-27T21:00:19.985Z,8.25
2018-06-27T21:05:49.415Z,8.90
2018-06-27T21:11:19.126Z,8.43
2018-06-27T21:16:48.760Z,5.05
2018-06-27T21:22:18.520Z,5.47
2018-06-27T21:27:48.057Z,3.60
2018-06-27T21:33:17.940Z,3.75
2018-06-27T21:38:47.799Z,3.90
2018-06-27T21:44:17.828Z,3.98
2018-06-27T21:49:47.692Z,3.92
2018-06-27T21:55:17.545Z,3.20
2018-06-27T22:00:47.494Z,4.03
2018-06-27T22:06:17.595Z,3.98
2018-06-27T22:11:47.477Z,3.27
2018-06-27T22:17:17.471Z,3.80
2018-06-27T22:22:47.701Z,3.60
2018-06-27T22:28:17.935Z,3.77
2018-06-27T22:33:47.857Z,3.72
2018-06-27T22:39:17.773Z,3.72
2018-06-27T22:44:47.838Z,3.95
2018-06-27T22:50:17.904Z,3.98
2018-06-27T22:55:47.549Z,3.92
2018-06-27T23:01:17.713Z,3.85
2018-06-27T23:06:47.785Z,3.58
2018-06-27T23:12:17.897Z,3.65
2018-06-27T23:17:47.872Z,3.80
2018-06-27T23:23:17.568Z,3.60
2018-06-27T23:28:47.699Z,4.60
2018-06-27T23:34:17.516Z,4.50
2018-06-27T23:39:47.302Z,3.92
2018-06-27T23:45:17.481Z,4.10
2018-06-27T23:50:47.320Z,4.15
2018-06-27T23:56:17.063Z,4.80
